createdAt,value
2023-04-11T00:01:56.149Z,100731.77
2023-04-11T00:04:29.305Z,100724.95
2023-04-11T00:07:01.635Z,100720.79
2023-04-11T00:09:34.080Z,100719.63
2023-04-11T00:12:06.767Z,100717.05
2023-04-11T00:14:45.972Z,100709.45
2023-04-11T00:17:18.932Z,100712.44
2023-04-11T00:19:53.793Z,100708.17
2023-04-11T00:22:27.858Z,100703.41
2023-04-11T00:24:59.996Z,100703.02
2023-04-11T00:27:32.886Z,100701.91
2023-04-11T00:30:07.220Z,100701.42
2023-04-11T00:32:41.287Z,100694.79
2023-04-11T00:35:15.952Z,100696.91
2023-04-11T00:37:49.576Z,100692.73
2023-04-11T00:40:22.291Z,100692.50
2023-04-11T00:42:56.268Z,100688.48
2023-04-11T00:45:28.888Z,100682.24
2023-04-11T00:48:01.643Z,100680.13
2023-04-11T00:50:33.993Z,100681.12
2023-04-11T00:53:05.964Z,100675.77
2023-04-11T00:55:41.549Z,100672.39
2023-04-11T00:58:13.752Z,100673.93
2023-04-11T01:00:50.151Z,100672.58
2023-04-11T01:03:23.124Z,100670.13
2023-04-11T01:05:56.884Z,100666.39
2023-04-11T01:08:29.471Z,100670.11
2023-04-11T01:11:02.876Z,100665.53
2023-04-11T01:13:37.131Z,100662.59
2023-04-11T01:16:11.433Z,100656.55
2023-04-11T01:18:56.995Z,100659.50
2023-04-11T01:21:30.074Z,100654.14
2023-04-11T01:24:04.914Z,100656.97
2023-04-11T01:26:38.563Z,100655.48
2023-04-11T01:29:11.806Z,100655.43
2023-04-11T01:31:44.294Z,100652.21
2023-04-11T01:34:20.260Z,100650.98
2023-04-11T01:36:52.512Z,100652.61
2023-04-11T01:39:27.450Z,100654.19
2023-04-11T01:42:01.729Z,100652.30
2023-04-11T01:44:36.119Z,100651.27
2023-04-11T01:47:11.213Z,100647.17
2023-04-11T01:49:46.359Z,100640.95
2023-04-11T01:52:20.256Z,100642.54
2023-04-11T01:54:53.717Z,100641.23
2023-04-11T01:57:26.059Z,100639.89
2023-04-11T01:59:59.029Z,100637.70
2023-04-11T02:02:33.964Z,100633.18
2023-04-11T02:05:08.692Z,100629.43
2023-04-11T02:07:43.627Z,100624.48
2023-04-11T02:10:15.835Z,100622.33
2023-04-11T02:12:48.359Z,100620.45
2023-04-11T02:15:20.762Z,100618.49
2023-04-11T02:17:54.463Z,100610.95
2023-04-11T02:20:30.702Z,100609.11
2023-04-11T02:23:04.798Z,100613.70
2023-04-11T02:25:37.855Z,100608.69
2023-04-11T02:28:12.968Z,100607.77
2023-04-11T02:30:45.510Z,100607.15
2023-04-11T02:33:17.727Z,100603.73
2023-04-11T02:35:57.921Z,100599.11
2023-04-11T02:38:30.466Z,100600.99
2023-04-11T02:41:05.018Z,100596.94
2023-04-11T02:43:39.458Z,100593.80
2023-04-11T02:46:13.122Z,100589.66
2023-04-11T02:48:52.447Z,100587.11
2023-04-11T02:51:25.115Z,100586.93
2023-04-11T02:53:57.334Z,100585.31
2023-04-11T02:56:34.348Z,100586.75
2023-04-11T02:59:07.227Z,100580.59
2023-04-11T03:01:41.621Z,100582.13
2023-04-11T03:04:14.221Z,100578.50
2023-04-11T03:06:58.540Z,100582.72
2023-04-11T03:09:30.854Z,100579.14
2023-04-11T03:12:02.928Z,100575.09
2023-04-11T03:14:35.373Z,100566.02
2023-04-11T03:17:07.536Z,100567.92
2023-04-11T03:19:43.508Z,100562.90
2023-04-11T03:22:15.764Z,100560.99
2023-04-11T03:24:50.016Z,100561.04
2023-04-11T03:27:24.083Z,100558.09
2023-04-11T03:29:59.829Z,100560.81
2023-04-11T03:32:40.116Z,100565.62
2023-04-11T03:35:14.905Z,100562.18
2023-04-11T03:37:50.785Z,100557.81
2023-04-11T03:40:22.981Z,100555.21
2023-04-11T03:43:04.329Z,100552.70
2023-04-11T03:45:38.297Z,100557.92
2023-04-11T03:48:14.429Z,100559.16
2023-04-11T03:51:07.778Z,100555.65
2023-04-11T03:53:46.030Z,100555.70
2023-04-11T03:56:41.612Z,100554.16
2023-04-11T03:59:20.935Z,100547.83
2023-04-11T04:02:10.801Z,100554.20
2023-04-11T04:04:55.111Z,100546.54
2023-04-11T04:07:32.039Z,100546.55
2023-04-11T04:10:15.419Z,100548.89
2023-04-11T04:12:48.161Z,100549.39
2023-04-11T04:15:23.663Z,100552.29
2023-04-11T04:17:55.979Z,100553.27
2023-04-11T04:20:42.595Z,100548.79
2023-04-11T04:23:20.139Z,100553.60
2023-04-11T04:26:02.409Z,100553.21
2023-04-11T04:28:36.697Z,100555.62
2023-04-11T04:31:09.689Z,100553.89
2023-04-11T04:33:49.666Z,100553.60
2023-04-11T04:36:28.707Z,100552.32
2023-04-11T04:39:02.350Z,100545.33
2023-04-11T04:41:37.745Z,100542.02
2023-04-11T04:44:12.613Z,100537.92
2023-04-11T04:46:53.969Z,100535.13
2023-04-11T04:49:27.533Z,100532.84
2023-04-11T04:52:00.110Z,100534.90
2023-04-11T04:54:35.087Z,100534.05
2023-04-11T04:57:07.821Z,100536.70
2023-04-11T04:59:42.352Z,100535.06
2023-04-11T05:02:17.935Z,100533.44
2023-04-11T05:04:54.290Z,100532.98
2023-04-11T05:07:26.800Z,100536.42
2023-04-11T05:09:59.643Z,100542.48
2023-04-11T05:12:33.052Z,100543.57
2023-04-11T05:15:12.999Z,100540.23
2023-04-11T05:17:46.210Z,100537.79
2023-04-11T05:20:20.328Z,100526.80
2023-04-11T05:22:53.753Z,100522.92
2023-04-11T05:25:27.486Z,100514.90
2023-04-11T05:28:02.871Z,100512.17
2023-04-11T05:30:35.522Z,100508.73
2023-04-11T05:33:09.984Z,100508.03
2023-04-11T05:35:42.664Z,100506.98
2023-04-11T05:38:15.663Z,100500.75
2023-04-11T05:40:48.174Z,100495.91
2023-04-11T05:43:20.360Z,100488.40
2023-04-11T05:45:53.874Z,100480.20
2023-04-11T05:48:26.830Z,100478.08
2023-04-11T05:50:59.545Z,100476.79
2023-04-11T05:53:32.218Z,100472.73
2023-04-11T05:56:04.828Z,100467.01
2023-04-11T05:58:37.869Z,100461.15
2023-04-11T06:01:19.616Z,100460.33
2023-04-11T06:03:51.740Z,100458.85
2023-04-11T06:06:24.680Z,100461.45
2023-04-11T06:08:56.714Z,100461.34
2023-04-11T06:11:31.065Z,100462.48
2023-04-11T06:14:03.687Z,100457.40
2023-04-11T06:16:36.981Z,100454.90
2023-04-11T06:19:12.438Z,100451.60
2023-04-11T06:21:48.069Z,100443.66
2023-04-11T06:24:29.935Z,100440.06
2023-04-11T06:27:02.317Z,100438.40
2023-04-11T06:29:34.259Z,100438.88
2023-04-11T06:32:07.722Z,100433.78
2023-04-11T06:34:42.267Z,100436.52
2023-04-11T06:37:14.891Z,100427.25
2023-04-11T06:39:47.617Z,100425.99
2023-04-11T06:42:20.442Z,100420.74
2023-04-11T06:44:57.414Z,100424.29
2023-04-11T06:47:29.948Z,100421.86
2023-04-11T06:50:02.146Z,100418.50
2023-04-11T06:52:34.784Z,100411.30
2023-04-11T06:55:08.693Z,100407.30
2023-04-11T06:57:44.878Z,100406.34
2023-04-11T07:00:20.008Z,100409.09
2023-04-11T07:02:55.098Z,100407.55
2023-04-11T07:05:30.281Z,100395.93
2023-04-11T07:08:04.280Z,100395.27
2023-04-11T07:10:39.220Z,100386.06
2023-04-11T07:13:12.813Z,100381.34
2023-04-11T07:15:46.000Z,100381.29
2023-04-11T07:18:18.819Z,100377.80
2023-04-11T07:20:54.032Z,100377.72
2023-04-11T07:23:27.126Z,100372.52
2023-04-11T07:26:01.966Z,100373.88
2023-04-11T07:28:35.737Z,100368.21
2023-04-11T07:31:11.531Z,100368.70
2023-04-11T07:33:49.850Z,100366.73
2023-04-11T07:36:24.631Z,100361.92
2023-04-11T07:38:59.732Z,100356.40
2023-04-11T07:41:31.855Z,100353.27
2023-04-11T07:44:04.547Z,100348.48
2023-04-11T07:46:37.326Z,100346.02
2023-04-11T07:49:19.954Z,100347.84
2023-04-11T07:51:54.657Z,100339.26
2023-04-11T07:54:34.785Z,100337.23
2023-04-11T07:57:09.135Z,100331.87
2023-04-11T07:59:43.164Z,100332.75
2023-04-11T08:02:17.036Z,100331.08
2023-04-11T08:04:50.256Z,100330.73
2023-04-11T08:07:22.562Z,100328.94
2023-04-11T08:09:55.140Z,100326.79
2023-04-11T08:12:27.237Z,100325.13
2023-04-11T08:15:02.720Z,100323.13
2023-04-11T08:17:39.234Z,100322.63
2023-04-11T08:20:14.201Z,100322.93
2023-04-11T08:22:47.646Z,100322.38
2023-04-11T08:25:23.283Z,100320.85
2023-04-11T08:27:55.516Z,100317.50
2023-04-11T08:30:28.375Z,100310.30
2023-04-11T08:33:05.404Z,100307.83
2023-04-11T08:35:38.406Z,100300.05
2023-04-11T08:38:16.617Z,100291.96
2023-04-11T08:40:49.103Z,100286.85
2023-04-11T08:43:21.933Z,100277.03
2023-04-11T08:45:55.963Z,100273.86
2023-04-11T08:48:30.734Z,100271.80
2023-04-11T08:51:07.398Z,100271.05
2023-04-11T08:53:44.682Z,100266.23
2023-04-11T08:56:25.744Z,100259.33
2023-04-11T08:58:58.452Z,100252.46
2023-04-11T09:01:33.607Z,100251.81
2023-04-11T09:04:08.890Z,100245.94
2023-04-11T09:06:43.849Z,100244.13
2023-04-11T09:09:31.554Z,100242.52
2023-04-11T09:12:10.401Z,100230.05
2023-04-11T09:14:46.207Z,100233.20
2023-04-11T09:17:18.693Z,100228.21
2023-04-11T09:19:50.967Z,100224.70
2023-04-11T09:22:36.184Z,100213.77
2023-04-11T09:25:09.244Z,100209.11
2023-04-11T09:27:44.162Z,100206.00
2023-04-11T09:30:26.190Z,100193.01
2023-04-11T09:33:01.020Z,100181.88
2023-04-11T09:35:36.072Z,100176.73
2023-04-11T09:38:12.383Z,100169.63
2023-04-11T09:40:48.401Z,100163.41
2023-04-11T09:43:23.367Z,100158.21
2023-04-11T09:46:20.646Z,100154.54
2023-04-11T09:48:55.331Z,100153.02
2023-04-11T09:51:36.417Z,100147.42
2023-04-11T09:54:25.023Z,100147.21
2023-04-11T09:57:00.630Z,100148.21
2023-04-11T09:59:34.188Z,100142.27
2023-04-11T10:02:06.296Z,100138.64
2023-04-11T10:04:41.735Z,100138.04
2023-04-11T10:07:17.340Z,100132.27
2023-04-11T10:09:50.632Z,100125.84
2023-04-11T10:12:35.522Z,100126.70
2023-04-11T10:15:13.187Z,100126.80
2023-04-11T10:18:12.558Z,100122.62
2023-04-11T10:20:51.923Z,100119.45
2023-04-11T10:23:24.319Z,100116.61
2023-04-11T10:26:01.653Z,100122.98
2023-04-11T10:28:40.434Z,100115.23
2023-04-11T10:31:24.163Z,100109.08
2023-04-11T10:34:16.853Z,100109.25
2023-04-11T10:37:08.710Z,100105.35
2023-04-11T10:40:11.431Z,100100.09
2023-04-11T10:42:46.903Z,100095.23
2023-04-11T10:45:24.776Z,100093.31
2023-04-11T10:48:13.593Z,100091.13
2023-04-11T10:50:46.794Z,100095.25
2023-04-11T10:53:38.568Z,100089.73
2023-04-11T10:56:16.130Z,100088.33
2023-04-11T10:59:01.660Z,100092.02
2023-04-11T11:04:11.365Z,100090.63
2023-04-11T11:06:56.797Z,100084.17
2023-04-11T11:09:29.810Z,100081.98
2023-04-11T11:12:12.098Z,100081.23
2023-04-11T11:14:51.250Z,100075.18
2023-04-11T11:17:23.869Z,100075.52
2023-04-11T11:19:55.933Z,100074.47
2023-04-11T11:22:28.715Z,100068.81
2023-04-11T11:25:10.550Z,100062.39
2023-04-11T11:27:46.378Z,100056.35
2023-04-11T11:30:20.847Z,100053.53
2023-04-11T11:32:53.239Z,100046.18
2023-04-11T11:35:27.780Z,100045.71
2023-04-11T11:38:00.954Z,100048.17
2023-04-11T11:40:33.472Z,100041.74
2023-04-11T11:43:08.189Z,100043.02
2023-04-11T11:45:41.587Z,100042.08
2023-04-11T11:48:24.761Z,100045.93
2023-04-11T11:51:01.418Z,100040.29
2023-04-11T11:53:34.182Z,100036.64
2023-04-11T11:56:26.062Z,100036.14
2023-04-11T11:58:58.974Z,100032.98
2023-04-11T12:01:32.555Z,100033.35
2023-04-11T12:04:13.101Z,100029.33
2023-04-11T12:06:50.764Z,100021.73
2023-04-11T12:09:32.353Z,100018.96
2023-04-11T12:12:11.937Z,100019.66
2023-04-11T12:14:58.849Z,100021.17
2023-04-11T12:20:38.601Z,100018.23
2023-04-11T12:23:30.263Z,100017.73
2023-04-11T12:26:06.555Z,100018.10
2023-04-11T12:28:59.341Z,100011.96
2023-04-11T12:31:33.901Z,100007.46
2023-04-11T12:34:16.932Z,100003.14
2023-04-11T12:36:58.555Z,99997.32
2023-04-11T12:44:22.884Z,99982.55
2023-04-11T12:45:35.968Z,99976.77
2023-04-11T12:48:24.056Z,99976.55
2023-04-11T12:50:55.648Z,99965.31
2023-04-11T12:53:31.398Z,99964.94
2023-04-11T12:56:04.320Z,99961.96
2023-04-11T12:58:38.170Z,99962.55
2023-04-11T13:01:25.165Z,99961.13
2023-04-11T13:03:57.921Z,99956.38
2023-04-11T13:06:32.283Z,99955.83
2023-04-11T13:09:05.943Z,99959.20
2023-04-11T13:11:44.484Z,99953.75
2023-04-11T13:14:18.794Z,99948.05
2023-04-11T13:16:57.245Z,99940.98
2023-04-11T13:19:29.583Z,99940.34
2023-04-11T13:22:04.310Z,99938.80
2023-04-11T13:24:38.643Z,99935.54
2023-04-11T13:27:14.543Z,99929.83
2023-04-11T13:29:47.546Z,99924.31
2023-04-11T13:32:20.521Z,99926.95
2023-04-11T13:34:54.498Z,99922.19
2023-04-11T13:37:27.078Z,99916.57
2023-04-11T13:39:59.461Z,99917.69
2023-04-11T13:42:31.961Z,99914.39
2023-04-11T13:45:07.892Z,99915.29
2023-04-11T13:47:41.572Z,99915.05
2023-04-11T13:50:17.655Z,99912.36
2023-04-11T13:53:01.981Z,99910.17
2023-04-11T13:55:34.136Z,99908.73
2023-04-11T13:58:09.295Z,99900.05
2023-04-11T14:00:42.701Z,99896.81
2023-04-11T14:03:18.354Z,99895.17
2023-04-11T14:05:59.023Z,99894.31
2023-04-11T14:08:32.082Z,99895.38
2023-04-11T14:11:05.355Z,99886.16
2023-04-11T14:13:41.963Z,99880.29
2023-04-11T14:16:22.785Z,99883.61
2023-04-11T14:18:57.483Z,99880.13
2023-04-11T14:21:30.146Z,99876.65
2023-04-11T14:24:02.637Z,99873.88
2023-04-11T14:26:34.664Z,99871.48
2023-04-11T14:29:07.203Z,99869.95
2023-04-11T14:31:45.138Z,99868.50
2023-04-11T14:34:17.085Z,99865.33
2023-04-11T14:36:50.993Z,99863.80
2023-04-11T14:39:34.615Z,99859.70
2023-04-11T14:42:10.560Z,99865.61
2023-04-11T14:44:44.043Z,99863.92
2023-04-11T14:47:30.377Z,99862.88
2023-04-11T14:50:03.362Z,99858.83
2023-04-11T14:52:38.638Z,99856.39
2023-04-11T14:55:12.948Z,99852.55
2023-04-11T14:57:50.346Z,99850.20
2023-04-11T15:00:24.941Z,99849.37
2023-04-11T15:03:00.707Z,99849.38
2023-04-11T15:05:33.074Z,99842.83
2023-04-11T15:08:05.649Z,99839.33
2023-04-11T15:10:49.291Z,99840.29
2023-04-11T15:13:27.138Z,99834.63
2023-04-11T15:16:03.546Z,99828.39
2023-04-11T15:18:46.047Z,99824.89
2023-04-11T15:21:28.985Z,99822.23
2023-04-11T15:24:10.091Z,99819.67
2023-04-11T15:26:46.916Z,99815.16
2023-04-11T15:29:20.572Z,99816.41
2023-04-11T15:31:54.637Z,99813.27
2023-04-11T15:34:27.179Z,99816.49
2023-04-11T15:36:59.884Z,99818.64
2023-04-11T15:39:32.421Z,99815.50
2023-04-11T15:42:04.543Z,99820.00
2023-04-11T15:44:37.006Z,99815.79
2023-04-11T15:47:09.499Z,99813.48
2023-04-11T15:49:44.924Z,99807.73
2023-04-11T15:52:18.905Z,99802.08
2023-04-11T15:54:51.381Z,99801.25
2023-04-11T15:57:23.816Z,99801.20
2023-04-11T15:59:56.066Z,99806.77
2023-04-11T16:02:29.009Z,99803.59
2023-04-11T16:05:03.567Z,99800.38
2023-04-11T16:07:36.292Z,99799.86
2023-04-11T16:10:10.651Z,99802.91
2023-04-11T16:12:43.212Z,99802.38
2023-04-11T16:15:16.017Z,99798.86
2023-04-11T16:17:48.396Z,99795.92
2023-04-11T16:20:24.391Z,99798.30
2023-04-11T16:22:57.136Z,99792.35
2023-04-11T16:25:29.524Z,99791.27
2023-04-11T16:28:05.398Z,99790.60
2023-04-11T16:30:38.597Z,99784.50
2023-04-11T16:33:16.386Z,99783.27
2023-04-11T16:35:49.409Z,99780.83
2023-04-11T16:38:23.776Z,99783.44
2023-04-11T16:40:56.679Z,99780.56
2023-04-11T16:43:29.042Z,99780.34
2023-04-11T16:46:02.284Z,99776.97
2023-04-11T16:48:34.538Z,99778.09
2023-04-11T16:51:10.751Z,99778.52
2023-04-11T16:53:47.540Z,99775.41
2023-04-11T16:56:29.131Z,99778.63
2023-04-11T16:59:01.645Z,99774.38
2023-04-11T17:01:36.723Z,99770.31
2023-04-11T17:04:11.891Z,99769.90
2023-04-11T17:06:50.438Z,99768.20
2023-04-11T17:09:24.872Z,99765.23
2023-04-11T17:12:02.259Z,99760.95
2023-04-11T17:14:36.825Z,99763.48
2023-04-11T17:17:09.167Z,99760.18
2023-04-11T17:19:42.298Z,99760.30
2023-04-11T17:22:16.088Z,99763.02
2023-04-11T17:24:49.838Z,99760.36
2023-04-11T17:27:22.477Z,99755.55
2023-04-11T17:29:55.222Z,99754.16
2023-04-11T17:32:31.337Z,99756.92
2023-04-11T17:35:09.152Z,99759.15
2023-04-11T17:37:42.766Z,99762.36
2023-04-11T17:40:17.415Z,99761.11
2023-04-11T17:42:51.412Z,99760.70
2023-04-11T17:45:26.108Z,99760.67
2023-04-11T17:48:01.439Z,99763.35
2023-04-11T17:50:46.737Z,99761.14
2023-04-11T17:53:19.510Z,99762.70
2023-04-11T17:56:52.840Z,99764.00
2023-04-11T18:00:04.731Z,99766.52
2023-04-11T18:02:48.364Z,99770.19
2023-04-11T18:05:27.210Z,99768.54
2023-04-11T18:08:03.332Z,99775.71
2023-04-11T18:10:45.478Z,99774.04
2023-04-11T18:13:18.667Z,99776.68
2023-04-11T18:15:54.309Z,99774.38
2023-04-11T18:18:49.958Z,99780.73
2023-04-11T18:21:43.086Z,99783.04
2023-04-11T18:24:35.774Z,99779.67
2023-04-11T18:27:31.593Z,99786.86
2023-04-11T18:30:25.181Z,99792.24
2023-04-11T18:33:19.693Z,99793.45
2023-04-11T18:36:13.880Z,99795.71
2023-04-11T18:39:15.210Z,99792.61
2023-04-11T18:42:08.781Z,99788.58
2023-04-11T18:45:13.492Z,99790.04
2023-04-11T18:48:07.369Z,99791.11
2023-04-11T18:51:05.303Z,99791.65
2023-04-11T18:55:01.037Z,99791.73
2023-04-11T18:57:14.608Z,99797.33
2023-04-11T19:00:18.077Z,99797.58
2023-04-11T19:03:17.527Z,99797.27
2023-04-11T19:06:13.045Z,99796.98
2023-04-11T19:09:16.486Z,99797.09
2023-04-11T19:12:23.259Z,99799.44
2023-04-11T19:15:37.313Z,99800.39
2023-04-11T19:18:32.901Z,99802.02
2023-04-11T19:21:32.603Z,99800.42
2023-04-11T19:24:26.523Z,99801.60
2023-04-11T19:27:39.900Z,99803.86
2023-04-11T19:30:35.474Z,99805.73
2023-04-11T19:33:28.330Z,99802.00
2023-04-11T19:36:31.600Z,99804.08
2023-04-11T19:39:24.610Z,99807.02
2023-04-11T19:48:25.362Z,99799.67
2023-04-11T19:51:26.797Z,99797.70
2023-04-11T19:54:00.176Z,99800.95
2023-04-11T19:56:57.444Z,99798.34
2023-04-11T19:59:51.874Z,99801.56
2023-04-11T20:02:59.278Z,99808.70
2023-04-11T20:05:51.910Z,99807.39
2023-04-11T20:08:47.504Z,99810.17
2023-04-11T20:11:40.916Z,99810.10
2023-04-11T20:14:33.803Z,99810.27
2023-04-11T20:17:27.597Z,99807.79
2023-04-11T20:20:22.515Z,99806.52
2023-04-11T20:23:24.089Z,99800.83
2023-04-11T20:26:17.961Z,99797.48
2023-04-11T20:29:13.647Z,99796.72
2023-04-11T20:32:07.151Z,99795.84
2023-04-11T20:35:02.016Z,99799.27
2023-04-11T20:38:00.373Z,99793.86
2023-04-11T20:40:57.253Z,99789.59
2023-04-11T20:44:28.546Z,99790.09
2023-04-11T20:47:12.628Z,99792.46
2023-04-11T20:50:06.781Z,99796.68
2023-04-11T20:53:02.715Z,99800.36
2023-04-11T20:56:00.178Z,99805.75
2023-04-11T20:59:02.799Z,99814.86
2023-04-11T21:02:02.062Z,99815.69
2023-04-11T21:05:06.467Z,99816.80
2023-04-11T21:07:59.224Z,99819.91
2023-04-11T21:10:44.464Z,99821.14
2023-04-11T21:13:38.322Z,99817.52
2023-04-11T21:16:31.575Z,99812.39
2023-04-11T21:19:26.813Z,99813.56
2023-04-11T21:25:57.196Z,99812.50
2023-04-11T21:28:53.231Z,99809.56
2023-04-11T21:31:50.512Z,99812.27
2023-04-11T21:34:43.972Z,99809.97
2023-04-11T21:37:40.144Z,99813.02
2023-04-11T21:40:32.915Z,99811.96
2023-04-11T21:43:25.748Z,99813.58
2023-04-11T21:46:20.391Z,99813.27
2023-04-11T21:49:14.722Z,99816.87
2023-04-11T21:52:09.227Z,99812.74
2023-04-11T21:55:01.676Z,99809.95
2023-04-11T21:57:55.821Z,99808.29
2023-04-11T22:00:53.055Z,99807.17
2023-04-11T22:03:50.616Z,99808.37
2023-04-11T22:06:46.450Z,99810.85
2023-04-11T22:09:47.240Z,99810.27
2023-04-11T22:12:43.472Z,99811.67
2023-04-11T22:15:38.486Z,99811.98
2023-04-11T22:18:31.491Z,99813.84
2023-04-11T22:21:26.642Z,99812.20
2023-04-11T22:24:15.484Z,99808.10
2023-04-11T22:27:10.591Z,99812.92
2023-04-11T22:30:03.562Z,99804.05
2023-04-11T22:32:47.072Z,99796.66
2023-04-11T22:35:40.050Z,99796.13
2023-04-11T22:38:33.570Z,99797.20
2023-04-11T22:41:50.896Z,99792.42
2023-04-11T22:44:45.381Z,99794.67
2023-04-11T22:47:38.576Z,99797.70
2023-04-11T22:50:33.454Z,99795.66
2023-04-11T22:53:35.423Z,99797.61
2023-04-11T22:56:31.178Z,99797.17
2023-04-11T22:59:23.633Z,99795.21
2023-04-11T23:02:21.066Z,99794.69
2023-04-11T23:05:17.268Z,99789.16
2023-04-11T23:08:10.376Z,99798.10
2023-04-11T23:11:07.677Z,99794.67
2023-04-11T23:14:05.404Z,99795.11
2023-04-11T23:16:58.075Z,99799.71
2023-04-11T23:19:50.607Z,99795.64
2023-04-11T23:22:33.228Z,99786.94
2023-04-11T23:25:26.376Z,99785.19
2023-04-11T23:28:19.148Z,99784.84
2023-04-11T23:31:13.667Z,99784.44
2023-04-11T23:34:08.747Z,99788.86
2023-04-11T23:37:01.267Z,99793.55
2023-04-11T23:39:59.453Z,99796.11
2023-04-11T23:42:52.892Z,99794.71
2023-04-11T23:45:44.906Z,99792.85
2023-04-11T23:48:30.699Z,99794.66
2023-04-11T23:51:23.541Z,99790.03
2023-04-11T23:54:20.852Z,99788.21
2023-04-11T23:57:14.200Z,99788.08
